createdAt,value
2022-11-26T00:02:25.509Z,46.80
2022-11-26T00:04:55.236Z,43.10
2022-11-26T00:07:26.876Z,38.20
2022-11-26T00:09:56.638Z,41.90
2022-11-26T00:12:31.767Z,40.70
2022-11-26T00:15:15.656Z,42.70
2022-11-26T00:17:44.057Z,36.90
2022-11-26T00:20:12.500Z,44.00
2022-11-26T00:22:46.989Z,72.20
2022-11-26T00:25:21.529Z,54.70
2022-11-26T00:27:52.575Z,45.10
2022-11-26T00:30:23.889Z,39.50
2022-11-26T00:32:53.792Z,41.30
2022-11-26T00:35:23.810Z,41.30
2022-11-26T00:37:57.919Z,39.30
2022-11-26T00:40:30.631Z,43.10
2022-11-26T00:43:01.834Z,42.90
2022-11-26T00:45:31.542Z,41.60
2022-11-26T00:48:01.885Z,40.10
2022-11-26T00:50:36.950Z,43.50
2022-11-26T00:53:06.094Z,44.90
2022-11-26T00:55:42.361Z,41.50
2022-11-26T00:58:26.468Z,48.70
2022-11-26T01:00:59.802Z,52.30
2022-11-26T01:03:28.177Z,45.60
2022-11-26T01:05:59.108Z,44.50
2022-11-26T01:08:35.571Z,47.10
2022-11-26T01:11:05.904Z,46.40
2022-11-26T01:13:34.177Z,50.60
2022-11-26T01:16:42.450Z,49.40
2022-11-26T01:19:15.366Z,52.70
2022-11-26T01:21:44.147Z,50.20
2022-11-26T01:24:12.525Z,48.90
2022-11-26T01:26:43.465Z,48.50
2022-11-26T01:29:17.219Z,51.90
2022-11-26T01:31:46.096Z,50.50
2022-11-26T01:34:14.643Z,57.80
2022-11-26T01:36:43.249Z,57.90
2022-11-26T01:39:19.145Z,53.30
2022-11-26T01:42:06.256Z,54.00
2022-11-26T01:44:36.788Z,55.60
2022-11-26T01:47:29.846Z,56.50
2022-11-26T01:50:29.400Z,51.90
2022-11-26T01:52:59.777Z,50.90
2022-11-26T01:55:41.936Z,48.70
2022-11-26T01:58:15.312Z,52.10
2022-11-26T02:00:44.100Z,52.30
2022-11-26T02:03:12.780Z,51.10
2022-11-26T02:05:49.328Z,56.00
2022-11-26T02:08:18.333Z,49.70
2022-11-26T02:10:46.639Z,48.30
2022-11-26T02:13:14.971Z,49.80
2022-11-26T02:16:01.408Z,46.40
2022-11-26T02:18:36.072Z,46.70
2022-11-26T02:21:18.738Z,49.20
2022-11-26T02:24:31.895Z,46.50
2022-11-26T02:27:21.468Z,52.50
2022-11-26T02:30:11.241Z,50.70
2022-11-26T02:33:02.359Z,44.90
2022-11-26T02:35:45.648Z,51.40
2022-11-26T02:38:21.988Z,50.60
2022-11-26T02:40:52.091Z,48.50
2022-11-26T02:43:20.679Z,48.50
2022-11-26T02:46:09.566Z,48.70
2022-11-26T02:48:44.109Z,46.30
2022-11-26T02:51:23.045Z,45.40
2022-11-26T02:53:52.896Z,47.80
2022-11-26T02:56:27.580Z,43.30
2022-11-26T02:58:57.395Z,44.30
2022-11-26T03:01:52.770Z,43.20
2022-11-26T03:04:26.256Z,53.60
2022-11-26T03:06:58.409Z,45.30
2022-11-26T03:09:26.718Z,43.90
2022-11-26T03:11:55.057Z,43.00
2022-11-26T03:14:23.400Z,41.00
2022-11-26T03:16:51.862Z,42.70
2022-11-26T03:19:20.148Z,40.40
2022-11-26T03:21:48.423Z,42.30
2022-11-26T03:24:16.734Z,41.00
2022-11-26T03:26:44.978Z,37.90
2022-11-26T03:29:13.206Z,44.30
2022-11-26T03:31:41.496Z,40.90
2022-11-26T03:34:09.797Z,38.50
2022-11-26T03:36:38.084Z,41.40
2022-11-26T03:39:06.432Z,38.90
2022-11-26T03:41:34.659Z,36.00
2022-11-26T03:44:03.172Z,37.10
2022-11-26T03:46:32.777Z,39.90
2022-11-26T03:49:01.078Z,34.60
2022-11-26T03:51:29.396Z,35.80
2022-11-26T03:53:57.744Z,39.10
2022-11-26T03:56:26.039Z,35.30
2022-11-26T03:58:54.283Z,39.00
2022-11-26T04:01:23.835Z,42.00
2022-11-26T04:03:52.184Z,37.70
2022-11-26T04:06:20.593Z,34.30
2022-11-26T04:08:48.951Z,33.90
2022-11-26T04:11:17.668Z,34.80
2022-11-26T04:13:45.883Z,37.80
2022-11-26T04:16:14.495Z,40.10
2022-11-26T04:18:43.012Z,40.30
2022-11-26T04:21:11.400Z,35.10
2022-11-26T04:23:39.740Z,36.70
2022-11-26T04:26:07.997Z,36.60
2022-11-26T04:28:36.287Z,37.20
2022-11-26T04:31:04.670Z,36.00
2022-11-26T04:33:33.004Z,39.00
2022-11-26T04:36:01.358Z,36.90
2022-11-26T04:38:29.951Z,35.20
2022-11-26T04:40:58.250Z,36.90
2022-11-26T04:43:26.629Z,35.70
2022-11-26T04:45:55.052Z,34.70
2022-11-26T04:48:23.532Z,35.90
2022-11-26T04:50:51.796Z,36.00
2022-11-26T04:53:22.027Z,33.10
2022-11-26T04:55:51.767Z,36.10
2022-11-26T04:58:20.682Z,34.30
2022-11-26T05:00:51.223Z,40.70
2022-11-26T05:03:20.196Z,35.10
2022-11-26T05:05:48.519Z,36.20
2022-11-26T05:08:16.828Z,33.40
2022-11-26T05:10:45.147Z,31.10
2022-11-26T05:13:13.480Z,33.20
2022-11-26T05:15:41.858Z,31.90
2022-11-26T05:18:10.101Z,31.40
2022-11-26T05:20:38.428Z,34.00
2022-11-26T05:23:06.714Z,34.40
2022-11-26T05:25:35.222Z,37.40
2022-11-26T05:28:03.579Z,35.00
2022-11-26T05:30:32.316Z,37.60
2022-11-26T05:33:00.789Z,37.20
2022-11-26T05:35:29.106Z,38.30
2022-11-26T05:37:57.358Z,35.90
2022-11-26T05:40:25.626Z,33.70
2022-11-26T05:42:53.916Z,36.50
2022-11-26T05:45:22.326Z,36.40
2022-11-26T05:47:50.663Z,42.10
2022-11-26T05:50:19.179Z,39.00
2022-11-26T05:52:47.420Z,38.60
2022-11-26T05:55:16.952Z,37.90
2022-11-26T05:57:45.273Z,41.90
2022-11-26T06:00:14.319Z,35.30
2022-11-26T06:02:43.347Z,31.10
2022-11-26T06:05:12.221Z,34.70
2022-11-26T06:07:44.557Z,30.50
2022-11-26T06:10:14.430Z,32.40
2022-11-26T06:12:42.639Z,35.80
2022-11-26T06:15:11.140Z,33.90
2022-11-26T06:17:39.482Z,34.40
2022-11-26T06:20:08.329Z,34.10
2022-11-26T06:22:41.373Z,35.00
2022-11-26T06:25:11.868Z,36.80
2022-11-26T06:27:53.237Z,37.30
2022-11-26T06:30:21.819Z,38.20
2022-11-26T06:32:50.385Z,37.40
2022-11-26T06:35:18.882Z,39.00
2022-11-26T06:37:48.795Z,37.40
2022-11-26T06:40:20.306Z,35.20
2022-11-26T06:42:53.371Z,37.10
2022-11-26T06:45:23.435Z,36.10
2022-11-26T06:47:52.411Z,37.10
2022-11-26T06:50:22.661Z,36.50
2022-11-26T06:52:52.863Z,38.60
2022-11-26T06:55:21.946Z,47.90
2022-11-26T06:57:51.609Z,72.10
2022-11-26T07:00:20.301Z,79.30
2022-11-26T07:02:48.887Z,58.30
2022-11-26T07:05:17.251Z,49.50
2022-11-26T07:07:45.651Z,43.90
2022-11-26T07:10:14.179Z,41.10
2022-11-26T07:12:42.468Z,41.00
2022-11-26T07:15:11.176Z,47.40
2022-11-26T07:17:39.528Z,40.10
2022-11-26T07:20:12.660Z,38.80
2022-11-26T07:22:43.709Z,45.30
2022-11-26T07:25:12.923Z,50.50
2022-11-26T07:27:41.603Z,49.60
2022-11-26T07:30:10.396Z,44.60
2022-11-26T07:32:39.220Z,46.30
2022-11-26T07:35:08.098Z,50.30
2022-11-26T07:37:36.759Z,45.00
2022-11-26T07:40:09.195Z,65.90
2022-11-26T07:42:38.678Z,70.00
2022-11-26T07:45:07.566Z,62.60
2022-11-26T07:47:38.838Z,53.50
2022-11-26T07:50:08.269Z,53.80
2022-11-26T07:52:36.869Z,60.70
2022-11-26T07:55:09.583Z,54.20
2022-11-26T07:57:40.868Z,52.60
2022-11-26T08:00:15.255Z,48.50
2022-11-26T08:02:44.962Z,59.20
2022-11-26T08:05:18.333Z,64.80
2022-11-26T08:07:46.659Z,54.80
2022-11-26T08:10:15.016Z,55.60
2022-11-26T08:12:48.900Z,59.00
2022-11-26T08:15:21.909Z,48.40
2022-11-26T08:17:54.635Z,52.50
2022-11-26T08:20:28.669Z,51.00
2022-11-26T08:22:57.567Z,50.50
2022-11-26T08:25:25.984Z,55.40
2022-11-26T08:27:54.490Z,50.90
2022-11-26T08:30:34.184Z,47.30
2022-11-26T08:33:02.452Z,51.40
2022-11-26T08:35:59.413Z,49.30
2022-11-26T08:38:23.786Z,45.10
2022-11-26T08:40:52.722Z,40.20
2022-11-26T08:43:39.598Z,43.20
2022-11-26T08:46:21.348Z,43.50
2022-11-26T08:48:55.230Z,44.60
2022-11-26T08:51:25.252Z,40.00
2022-11-26T08:53:56.403Z,40.70
2022-11-26T08:56:29.604Z,39.50
2022-11-26T08:58:58.339Z,42.30
2022-11-26T09:01:34.367Z,39.30
2022-11-26T09:04:04.543Z,37.40
2022-11-26T09:06:41.192Z,40.00
2022-11-26T09:09:19.407Z,39.30
2022-11-26T09:11:59.435Z,39.30
2022-11-26T09:14:36.082Z,33.80
2022-11-26T09:17:12.633Z,37.60
2022-11-26T09:19:41.205Z,50.70
2022-11-26T09:22:09.995Z,46.80
2022-11-26T09:24:38.522Z,54.80
2022-11-26T09:27:08.248Z,50.90
2022-11-26T09:29:41.704Z,52.50
2022-11-26T09:32:29.604Z,51.60
2022-11-26T09:35:00.848Z,44.00
2022-11-26T09:37:31.761Z,40.50
2022-11-26T09:40:00.564Z,33.90
2022-11-26T09:42:46.833Z,35.00
2022-11-26T09:45:49.852Z,31.50
2022-11-26T09:48:23.336Z,32.50
2022-11-26T09:51:00.221Z,33.10
2022-11-26T09:53:36.649Z,38.20
2022-11-26T09:56:11.696Z,34.40
2022-11-26T09:58:50.584Z,33.60
2022-11-26T10:01:24.586Z,35.10
2022-11-26T10:03:53.075Z,34.10
2022-11-26T10:06:42.755Z,37.40
2022-11-26T10:09:44.379Z,39.20
2022-11-26T10:13:03.422Z,36.10
2022-11-26T10:15:39.135Z,36.30
2022-11-26T10:18:28.491Z,33.40
2022-11-26T10:21:11.479Z,37.60
2022-11-26T10:24:00.821Z,43.00
2022-11-26T10:26:36.246Z,40.00
2022-11-26T10:29:24.850Z,35.60
2022-11-26T10:32:22.141Z,41.70
2022-11-26T10:34:53.337Z,34.70
2022-11-26T10:37:24.644Z,37.70
2022-11-26T10:40:17.614Z,37.90
2022-11-26T10:43:10.884Z,37.00
2022-11-26T10:45:43.083Z,33.70
2022-11-26T10:48:16.034Z,34.80
2022-11-26T10:50:55.202Z,39.10
2022-11-26T10:53:25.244Z,40.30
2022-11-26T10:56:05.960Z,40.50
2022-11-26T10:58:41.674Z,41.80
2022-11-26T11:01:15.569Z,39.40
2022-11-26T11:04:09.343Z,36.30
2022-11-26T11:06:42.866Z,38.00
2022-11-26T11:09:31.151Z,38.10
2022-11-26T11:12:18.156Z,33.30
2022-11-26T11:14:47.969Z,36.70
2022-11-26T11:17:23.166Z,35.80
2022-11-26T11:19:51.727Z,34.20
2022-11-26T11:22:21.588Z,31.70
2022-11-26T11:24:50.579Z,34.90
2022-11-26T11:27:26.614Z,36.60
2022-11-26T11:30:01.492Z,32.40
2022-11-26T11:32:36.936Z,35.30
2022-11-26T11:35:33.009Z,38.70
2022-11-26T11:40:45.549Z,34.40
2022-11-26T11:43:18.481Z,37.10
2022-11-26T11:46:04.443Z,34.90
2022-11-26T11:48:47.092Z,36.90
2022-11-26T11:51:24.708Z,33.50
2022-11-26T11:54:00.602Z,36.80
2022-11-26T11:56:35.659Z,31.30
2022-11-26T11:59:26.505Z,32.00
2022-11-26T12:02:23.044Z,35.50
2022-11-26T12:05:06.270Z,31.20
2022-11-26T12:07:58.706Z,32.50
2022-11-26T12:11:00.695Z,32.80
2022-11-26T12:13:31.964Z,37.80
2022-11-26T12:16:05.423Z,31.90
2022-11-26T12:18:49.139Z,35.20
2022-11-26T12:21:40.901Z,33.90
2022-11-26T12:24:16.464Z,29.30
2022-11-26T12:26:55.653Z,35.70
2022-11-26T12:29:40.460Z,33.80
2022-11-26T12:32:19.520Z,34.80
2022-11-26T12:34:52.847Z,33.60
2022-11-26T12:37:28.460Z,31.10
2022-11-26T12:40:00.553Z,39.80
2022-11-26T12:42:44.145Z,39.10
2022-11-26T12:48:25.794Z,36.50
2022-11-26T12:51:01.889Z,38.90
2022-11-26T12:54:23.372Z,39.80
2022-11-26T12:57:23.951Z,40.00
2022-11-26T13:00:01.199Z,40.50
2022-11-26T13:02:36.807Z,37.80
2022-11-26T13:05:06.031Z,35.60
2022-11-26T13:07:53.331Z,36.40
2022-11-26T13:10:27.579Z,35.90
2022-11-26T13:13:05.220Z,38.00
2022-11-26T13:15:42.216Z,35.20
2022-11-26T13:18:21.522Z,34.40
2022-11-26T13:21:05.693Z,36.40
2022-11-26T13:24:18.561Z,38.90
2022-11-26T13:27:09.397Z,40.10
2022-11-26T13:30:11.824Z,39.30
2022-11-26T13:33:08.529Z,40.90
2022-11-26T13:36:04.778Z,39.40
2022-11-26T13:38:49.394Z,41.30
2022-11-26T13:41:36.583Z,45.90
2022-11-26T13:44:51.842Z,39.70
2022-11-26T13:47:52.506Z,47.20
2022-11-26T13:50:59.690Z,47.20
2022-11-26T13:53:53.842Z,45.30
2022-11-26T13:56:25.500Z,47.40
2022-11-26T13:59:07.244Z,45.50
2022-11-26T14:01:40.540Z,47.90
2022-11-26T14:04:24.568Z,42.40
2022-11-26T14:07:05.173Z,45.90
2022-11-26T14:09:42.454Z,43.40
2022-11-26T14:12:12.671Z,43.90
2022-11-26T14:14:42.188Z,41.60
2022-11-26T14:17:13.387Z,45.40
2022-11-26T14:19:41.797Z,41.50
2022-11-26T14:22:16.016Z,45.10
2022-11-26T14:24:50.470Z,48.50
2022-11-26T14:27:26.333Z,46.00
2022-11-26T14:30:06.977Z,49.90
2022-11-26T14:32:43.776Z,59.20
2022-11-26T14:35:21.594Z,52.90
2022-11-26T14:37:55.773Z,46.60
2022-11-26T14:40:32.328Z,49.40
2022-11-26T14:43:28.144Z,47.00
2022-11-26T14:48:34.763Z,48.70
2022-11-26T14:51:07.308Z,49.00
2022-11-26T14:53:36.776Z,56.00
2022-11-26T14:56:05.529Z,49.20
2022-11-26T14:58:40.576Z,48.20
2022-11-26T15:03:54.249Z,53.60
2022-11-26T15:06:27.432Z,53.60
2022-11-26T15:09:10.810Z,53.60
2022-11-26T15:11:44.228Z,52.60
2022-11-26T15:14:25.117Z,53.30
2022-11-26T15:17:06.644Z,51.50
2022-11-26T15:19:38.395Z,66.20
2022-11-26T15:22:28.273Z,67.40
2022-11-26T15:25:03.380Z,65.20
2022-11-26T15:30:19.273Z,79.80
2022-11-26T15:33:13.582Z,65.00
2022-11-26T15:35:45.867Z,57.90
2022-11-26T15:38:18.846Z,65.80
2022-11-26T15:41:15.744Z,62.50
2022-11-26T15:43:49.688Z,62.00
2022-11-26T15:46:28.031Z,60.60
2022-11-26T15:48:59.559Z,62.90
2022-11-26T15:51:37.641Z,58.20
2022-11-26T15:55:11.550Z,55.70
2022-11-26T15:57:41.804Z,55.10
2022-11-26T16:00:38.043Z,52.40
2022-11-26T16:03:38.211Z,56.30
2022-11-26T16:06:08.567Z,62.50
2022-11-26T16:08:39.196Z,61.40
2022-11-26T16:11:20.224Z,60.50
2022-11-26T16:13:48.472Z,59.80
2022-11-26T16:16:19.941Z,73.40
2022-11-26T16:19:01.938Z,65.10
2022-11-26T16:21:33.089Z,71.00
2022-11-26T16:24:22.028Z,71.80
2022-11-26T16:26:53.674Z,74.30
2022-11-26T16:29:22.017Z,65.50
2022-11-26T16:31:50.369Z,71.20
2022-11-26T16:34:18.992Z,65.80
2022-11-26T16:36:47.924Z,67.80
2022-11-26T16:39:17.380Z,69.90
2022-11-26T16:41:45.655Z,69.30
2022-11-26T16:44:13.901Z,71.00
2022-11-26T16:46:42.292Z,75.50
2022-11-26T16:49:11.083Z,73.90
2022-11-26T16:51:39.311Z,74.50
2022-11-26T16:54:07.544Z,74.50
2022-11-26T16:56:38.492Z,72.70
2022-11-26T16:59:18.542Z,75.70
2022-11-26T17:01:46.958Z,78.90
2022-11-26T17:04:15.535Z,82.10
2022-11-26T17:06:43.881Z,76.00
2022-11-26T17:09:19.830Z,79.70
2022-11-26T17:11:48.327Z,79.40
2022-11-26T17:14:16.681Z,77.90
2022-11-26T17:16:45.043Z,81.00
2022-11-26T17:19:16.520Z,82.10
2022-11-26T17:21:44.842Z,76.80
2022-11-26T17:24:14.692Z,80.20
2022-11-26T17:26:45.200Z,77.60
2022-11-26T17:29:13.699Z,76.80
2022-11-26T17:31:44.435Z,74.40
2022-11-26T17:34:12.700Z,77.10
2022-11-26T17:36:41.012Z,75.50
2022-11-26T17:39:11.109Z,78.70
2022-11-26T17:41:39.460Z,68.20
2022-11-26T17:44:07.706Z,69.50
2022-11-26T17:47:01.018Z,69.70
2022-11-26T17:49:24.316Z,73.80
2022-11-26T17:51:52.558Z,70.00
2022-11-26T17:54:20.851Z,60.40
2022-11-26T17:56:50.444Z,70.60
2022-11-26T17:59:21.831Z,66.90
2022-11-26T18:01:52.175Z,69.50
2022-11-26T18:04:23.800Z,69.20
2022-11-26T18:06:58.050Z,65.20
2022-11-26T18:09:26.544Z,69.90
2022-11-26T18:11:56.264Z,60.00
2022-11-26T18:14:28.238Z,71.40
2022-11-26T18:16:56.959Z,59.70
2022-11-26T18:19:25.979Z,59.40
2022-11-26T18:21:54.824Z,62.70
2022-11-26T18:24:23.472Z,57.90
2022-11-26T18:26:56.344Z,60.80
2022-11-26T18:29:26.745Z,63.40
2022-11-26T18:31:54.995Z,59.40
2022-11-26T18:34:23.708Z,59.50
2022-11-26T18:36:53.941Z,56.70
2022-11-26T18:39:22.694Z,54.70
2022-11-26T18:41:54.516Z,53.60
2022-11-26T18:44:26.062Z,63.00
2022-11-26T18:46:59.151Z,57.10
2022-11-26T18:49:28.268Z,62.10
2022-11-26T18:51:56.644Z,64.00
2022-11-26T18:54:28.925Z,57.50
2022-11-26T18:56:57.361Z,57.10
2022-11-26T18:59:28.706Z,57.20
2022-11-26T19:02:04.545Z,61.40
2022-11-26T19:04:33.151Z,57.00
2022-11-26T19:07:02.787Z,60.20
2022-11-26T19:09:31.146Z,63.60
2022-11-26T19:11:59.719Z,66.20
2022-11-26T19:14:28.062Z,64.30
2022-11-26T19:16:56.383Z,60.80
2022-11-26T19:19:24.733Z,63.00
2022-11-26T19:21:59.355Z,59.90
2022-11-26T19:24:30.807Z,59.60
2022-11-26T19:26:59.793Z,67.90
2022-11-26T19:29:28.501Z,67.20
2022-11-26T19:31:56.871Z,64.10
2022-11-26T19:34:27.244Z,61.80
2022-11-26T19:36:57.823Z,63.90
2022-11-26T19:39:26.871Z,59.20
2022-11-26T19:42:01.599Z,65.40
2022-11-26T19:44:40.766Z,75.00
2022-11-26T19:47:09.546Z,85.90
2022-11-26T19:49:38.460Z,81.30
2022-11-26T19:52:09.949Z,76.80
2022-11-26T19:54:40.303Z,78.60
2022-11-26T19:57:12.447Z,69.50
2022-11-26T19:59:50.694Z,71.20
2022-11-26T20:02:21.079Z,70.10
2022-11-26T20:05:00.891Z,76.80
2022-11-26T20:07:33.214Z,68.30
2022-11-26T20:10:03.130Z,68.50
2022-11-26T20:12:31.898Z,86.60
2022-11-26T20:15:15.060Z,99.00
2022-11-26T20:17:52.870Z,74.30
2022-11-26T20:20:25.233Z,73.50
2022-11-26T20:22:56.986Z,71.10
2022-11-26T20:25:39.604Z,68.90
2022-11-26T20:28:09.641Z,71.70
2022-11-26T20:30:39.523Z,70.30
2022-11-26T20:33:09.008Z,74.90
2022-11-26T20:35:41.004Z,69.10
2022-11-26T20:38:14.549Z,77.20
2022-11-26T20:40:43.340Z,73.80
2022-11-26T20:43:12.032Z,77.00
2022-11-26T20:46:01.333Z,74.50
2022-11-26T20:48:31.147Z,80.60
2022-11-26T20:51:04.425Z,75.10
2022-11-26T20:53:35.257Z,79.70
2022-11-26T20:56:04.959Z,71.80
2022-11-26T20:58:34.953Z,73.10
2022-11-26T21:01:25.742Z,69.10
2022-11-26T21:03:55.585Z,72.20
2022-11-26T21:06:30.884Z,68.30
2022-11-26T21:09:01.426Z,69.00
2022-11-26T21:11:30.541Z,59.90
2022-11-26T21:14:00.115Z,61.40
2022-11-26T21:16:36.878Z,64.30
2022-11-26T21:19:13.019Z,55.30
2022-11-26T21:21:44.027Z,58.50
2022-11-26T21:24:15.834Z,70.40
2022-11-26T21:26:44.928Z,66.60
2022-11-26T21:29:13.926Z,55.60
2022-11-26T21:31:45.175Z,54.50
2022-11-26T21:34:15.405Z,72.40
2022-11-26T21:36:44.462Z,90.40
2022-11-26T21:39:17.932Z,117.30
2022-11-26T21:41:54.833Z,94.50
2022-11-26T21:44:29.236Z,92.90
2022-11-26T21:46:58.084Z,92.80
2022-11-26T21:49:34.978Z,88.00
2022-11-26T21:52:06.965Z,65.10
2022-11-26T21:54:40.402Z,63.00
2022-11-26T21:57:19.452Z,65.70
2022-11-26T21:59:50.163Z,51.50
2022-11-26T22:02:23.306Z,54.30
2022-11-26T22:04:52.169Z,52.70
2022-11-26T22:07:21.262Z,49.40
2022-11-26T22:09:50.393Z,53.80
2022-11-26T22:12:22.358Z,51.20
2022-11-26T22:14:51.717Z,61.80
2022-11-26T22:17:20.788Z,70.80
2022-11-26T22:19:49.112Z,61.60
2022-11-26T22:22:20.730Z,47.80
2022-11-26T22:24:54.219Z,54.70
2022-11-26T22:27:26.555Z,45.10
2022-11-26T22:30:00.088Z,47.10
2022-11-26T22:32:30.796Z,46.20
2022-11-26T22:34:59.188Z,45.10
2022-11-26T22:37:27.884Z,46.10
2022-11-26T22:40:01.527Z,49.00
2022-11-26T22:42:36.764Z,44.70
2022-11-26T22:45:05.608Z,45.80
2022-11-26T22:47:36.340Z,48.20
2022-11-26T22:50:11.583Z,46.10
2022-11-26T22:52:42.436Z,55.10
2022-11-26T22:55:14.440Z,43.60
2022-11-26T22:57:45.936Z,46.60
2022-11-26T23:00:46.700Z,39.20
2022-11-26T23:03:22.727Z,40.00
2022-11-26T23:05:54.186Z,40.40
2022-11-26T23:08:22.578Z,41.10
2022-11-26T23:10:50.895Z,42.00
2022-11-26T23:13:19.226Z,35.70
2022-11-26T23:15:48.601Z,43.30
2022-11-26T23:18:18.140Z,41.00
2022-11-26T23:21:03.207Z,42.30
2022-11-26T23:23:31.523Z,45.70
2022-11-26T23:26:02.754Z,40.00
2022-11-26T23:28:32.874Z,40.50
2022-11-26T23:31:05.325Z,38.70
2022-11-26T23:33:39.973Z,38.80
2022-11-26T23:36:09.370Z,35.30
2022-11-26T23:38:39.944Z,38.60
2022-11-26T23:41:09.375Z,37.30
2022-11-26T23:43:41.863Z,38.50
2022-11-26T23:46:19.903Z,33.70
2022-11-26T23:48:53.962Z,40.10
2022-11-26T23:53:59.404Z,36.10
2022-11-26T23:56:34.230Z,35.70
2022-11-26T23:59:08.888Z,39.00
